Time;durP1;ratioP1;P1;durP2;ratioP2;P2;SDS_P1;SDS_P2;PMS_P1;PMS_P2;Temp;Humidity;BMP_temperature;BMP_pressure;BME280_temperature;BME280_humidity;BME280_pressure;Samples;Min_cycle;Max_cycle;Signal;HPM_P1;HPM_P2
2023/03/30 00:00:17;;;;;;;5.20;2.22;;;14.70;99.90;;;;;;4922642;29;20028;-75
2023/03/30 00:02:44;;;;;;;4.97;2.30;;;14.90;99.90;;;;;;4936508;29;20038;-75
2023/03/30 00:05:12;;;;;;;10.35;2.25;;;14.90;99.90;;;;;;4927010;29;20020;-75
2023/03/30 00:07:41;;;;;;;6.75;2.50;;;14.90;99.90;;;;;;4932536;29;20043;-77
2023/03/30 00:10:13;;;;;;;4.88;2.03;;;14.90;99.90;;;;;;4929019;29;20020;-78
2023/03/30 00:12:39;;;;;;;6.63;2.70;;;14.90;99.90;;;;;;4927334;29;20027;-78
2023/03/30 00:15:08;;;;;;;5.88;2.58;;;14.80;99.90;;;;;;4928224;29;20031;-78
2023/03/30 00:17:35;;;;;;;6.38;2.33;;;14.80;99.90;;;;;;4931338;29;20035;-78
2023/03/30 00:20:01;;;;;;;3.55;1.92;;;14.80;99.90;;;;;;4924451;29;20406;-78
2023/03/30 00:22:27;;;;;;;5.95;2.25;;;14.80;99.90;;;;;;4927284;29;20038;-77
2023/03/30 00:24:53;;;;;;;8.18;2.30;;;14.80;99.90;;;;;;4929826;29;20028;-77
2023/03/30 00:27:18;;;;;;;5.57;2.35;;;14.80;99.90;;;;;;4933471;29;20544;-78
2023/03/30 00:29:44;;;;;;;4.43;2.25;;;14.80;99.90;;;;;;4929872;29;20031;-78
2023/03/30 00:32:10;;;;;;;6.28;2.50;;;14.80;99.90;;;;;;4932212;29;20071;-75
2023/03/30 00:34:36;;;;;;;7.25;2.08;;;14.70;99.90;;;;;;4928899;29;20027;-78
2023/03/30 00:37:02;;;;;;;10.50;2.30;;;14.70;99.90;;;;;;4932239;29;20039;-76
2023/03/30 00:39:27;;;;;;;4.63;2.08;;;14.70;99.90;;;;;;4930929;29;20032;-77
2023/03/30 00:41:53;;;;;;;6.55;2.17;;;14.70;99.90;;;;;;4933862;29;20047;-77
2023/03/30 00:44:56;;;;;;;4.65;2.03;;;14.70;99.90;;;;;;4931868;29;20028;-75
2023/03/30 00:47:22;;;;;;;8.93;2.65;;;14.80;99.90;;;;;;4926791;29;20032;-77
2023/03/30 00:49:48;;;;;;;3.50;2.00;;;14.80;99.90;;;;;;4925421;28;20031;-77
2023/03/30 00:52:18;;;;;;;6.72;2.17;;;14.80;99.90;;;;;;4934774;29;20023;-78
2023/03/30 00:54:45;;;;;;;5.28;1.80;;;14.80;99.90;;;;;;4932222;29;20016;-77
2023/03/30 00:57:12;;;;;;;7.07;1.95;;;14.80;99.90;;;;;;4937260;28;20032;-77
2023/03/30 00:59:38;;;;;;;10.65;2.58;;;14.80;99.90;;;;;;4948908;28;20097;-78
2023/03/30 01:02:04;;;;;;;8.32;2.42;;;14.80;99.90;;;;;;4932734;29;20074;-78
2023/03/30 01:04:30;;;;;;;5.70;1.85;;;14.90;99.90;;;;;;4938719;29;20020;-78
2023/03/30 01:06:57;;;;;;;5.55;2.22;;;14.80;99.90;;;;;;4938066;29;20058;-77
2023/03/30 01:09:24;;;;;;;10.57;2.38;;;14.90;99.90;;;;;;4934127;29;20156;-75
2023/03/30 01:11:50;;;;;;;8.07;2.35;;;14.80;99.90;;;;;;4929671;29;20024;-76
2023/03/30 01:14:17;;;;;;;5.53;2.63;;;14.80;99.90;;;;;;4930769;29;20031;-78
2023/03/30 01:17:04;;;;;;;6.97;2.50;;;14.90;99.90;;;;;;4921187;29;20031;-77
2023/03/30 01:20:08;;;;;;;9.15;2.47;;;14.80;99.90;;;;;;4933964;29;20043;-78
2023/03/30 01:23:00;;;;;;;5.78;2.30;;;14.90;99.90;;;;;;4938557;29;20099;-78
2023/03/30 01:25:50;;;;;;;6.53;2.33;;;14.90;99.90;;;;;;4930121;29;20047;-77
2023/03/30 01:28:45;;;;;;;6.78;3.00;;;14.90;99.90;;;;;;4930186;29;20026;-78
2023/03/30 01:31:24;;;;;;;6.68;2.30;;;14.80;99.90;;;;;;4936133;29;20035;-77
2023/03/30 01:34:48;;;;;;;6.43;2.20;;;14.70;99.90;;;;;;4937580;29;20026;-78
2023/03/30 01:37:32;;;;;;;8.70;2.35;;;14.70;99.90;;;;;;4931869;29;20056;-78
2023/03/30 01:40:18;;;;;;;6.78;2.22;;;14.70;99.90;;;;;;4936319;29;21212;-78
2023/03/30 01:43:00;;;;;;;9.32;2.50;;;14.60;99.90;;;;;;4931164;29;20047;-78
2023/03/30 01:45:26;;;;;;;6.22;1.75;;;14.50;99.90;;;;;;4930948;29;20020;-78
2023/03/30 01:48:25;;;;;;;5.63;2.55;;;14.60;99.90;;;;;;4928429;29;20495;-78
2023/03/30 01:50:56;;;;;;;4.70;2.10;;;14.50;99.90;;;;;;4924827;29;20036;-77
2023/03/30 01:53:31;;;;;;;4.30;2.40;;;14.50;99.90;;;;;;4933428;29;20035;-78
2023/03/30 01:56:12;;;;;;;7.03;1.83;;;14.50;99.90;;;;;;4926857;29;20110;-78
2023/03/30 01:59:04;;;;;;;6.85;2.20;;;14.50;99.90;;;;;;4925828;29;20042;-78
2023/03/30 02:01:32;;;;;;;5.13;1.83;;;14.50;99.90;;;;;;4931984;29;20027;-77
2023/03/30 02:03:58;;;;;;;6.07;2.28;;;14.50;99.90;;;;;;4925686;29;20056;-78
2023/03/30 02:06:29;;;;;;;7.10;1.65;;;14.50;99.90;;;;;;4930246;29;20026;-78
2023/03/30 02:08:58;;;;;;;7.35;2.20;;;14.50;99.90;;;;;;4926682;29;20027;-78
2023/03/30 02:11:25;;;;;;;3.72;1.92;;;14.50;99.90;;;;;;4922990;29;20027;-78
2023/03/30 02:13:54;;;;;;;9.15;2.10;;;14.50;99.90;;;;;;4927927;29;20090;-79
2023/03/30 02:16:29;;;;;;;7.50;2.47;;;14.40;99.90;;;;;;4927047;29;20027;-77
2023/03/30 02:18:56;;;;;;;6.13;2.35;;;14.40;99.90;;;;;;4935788;29;20106;-78
2023/03/30 02:21:22;;;;;;;4.75;1.92;;;14.40;99.90;;;;;;4930892;29;20036;-77
2023/03/30 02:23:49;;;;;;;5.60;2.38;;;14.40;99.90;;;;;;4925598;29;20071;-76
2023/03/30 02:26:15;;;;;;;4.65;2.03;;;14.40;99.90;;;;;;4927676;29;20571;-76
2023/03/30 02:28:41;;;;;;;4.88;1.95;;;14.40;99.90;;;;;;4929561;29;20012;-78
2023/03/30 02:31:14;;;;;;;5.03;2.30;;;14.30;99.90;;;;;;4928635;29;20024;-76
2023/03/30 02:34:05;;;;;;;9.40;2.35;;;14.30;99.90;;;;;;4926677;29;20118;-78
2023/03/30 02:36:40;;;;;;;7.50;2.05;;;14.30;99.90;;;;;;4932286;29;20019;-75
2023/03/30 02:39:18;;;;;;;6.78;2.13;;;14.40;99.90;;;;;;4924869;29;20126;-77
2023/03/30 02:42:28;;;;;;;4.95;2.13;;;14.20;99.90;;;;;;4944128;28;20153;-75
2023/03/30 02:45:03;;;;;;;6.70;1.60;;;14.30;99.90;;;;;;4935561;28;20043;-77
2023/03/30 02:48:06;;;;;;;5.43;2.33;;;14.30;99.90;;;;;;4930990;29;20028;-77
2023/03/30 02:50:50;;;;;;;4.57;2.13;;;14.40;99.90;;;;;;4944702;28;20079;-77
2023/03/30 02:53:44;;;;;;;4.63;2.25;;;14.40;99.90;;;;;;4926911;29;20023;-77
2023/03/30 02:56:20;;;;;;;6.82;2.22;;;14.40;99.90;;;;;;4932826;29;20112;-76
2023/03/30 02:59:12;;;;;;;4.60;2.20;;;14.50;99.90;;;;;;4925234;29;20380;-77
2023/03/30 03:01:47;;;;;;;6.88;2.00;;;14.40;99.90;;;;;;4931483;29;20063;-77
2023/03/30 03:04:14;;;;;;;3.15;1.52;;;14.30;99.90;;;;;;4925359;29;20036;-77
2023/03/30 03:06:41;;;;;;;4.03;1.58;;;14.40;99.90;;;;;;4929871;29;20035;-76
2023/03/30 03:09:08;;;;;;;4.15;1.75;;;14.50;99.90;;;;;;4931279;29;20046;-77
2023/03/30 03:11:34;;;;;;;3.28;1.75;;;14.40;99.90;;;;;;4941107;28;20024;-77
2023/03/30 03:13:59;;;;;;;4.10;1.75;;;14.40;99.90;;;;;;4934592;29;20537;-76
2023/03/30 03:16:25;;;;;;;6.20;2.00;;;14.50;99.90;;;;;;4928823;29;20358;-77
2023/03/30 03:18:51;;;;;;;6.65;1.77;;;14.40;99.90;;;;;;4922519;29;20038;-77
2023/03/30 03:21:20;;;;;;;4.13;1.30;;;14.50;99.90;;;;;;4927138;29;20032;-75
2023/03/30 03:23:47;;;;;;;8.32;1.90;;;14.50;99.90;;;;;;4927915;29;20044;-77
2023/03/30 03:26:13;;;;;;;8.27;2.00;;;14.40;99.90;;;;;;4927864;29;20028;-77
2023/03/30 03:28:38;;;;;;;4.18;1.70;;;14.40;99.90;;;;;;4925496;29;20545;-77
2023/03/30 03:31:05;;;;;;;9.88;2.47;;;14.50;99.90;;;;;;4929543;29;20028;-78
2023/03/30 03:33:31;;;;;;;5.20;1.85;;;14.60;99.90;;;;;;4926880;29;20119;-77
2023/03/30 03:35:58;;;;;;;6.75;1.67;;;14.60;99.90;;;;;;4934849;29;20056;-78
2023/03/30 03:38:25;;;;;;;3.63;1.58;;;14.70;99.90;;;;;;4935307;29;20388;-78
2023/03/30 03:40:53;;;;;;;5.93;1.52;;;14.70;99.90;;;;;;4926779;28;20054;-77
2023/03/30 03:43:19;;;;;;;6.60;1.83;;;14.80;99.90;;;;;;4930451;28;20028;-78
2023/03/30 03:45:46;;;;;;;9.30;1.83;;;14.70;99.90;;;;;;4925535;29;20128;-78
2023/03/30 03:48:13;;;;;;;8.23;1.98;;;14.70;99.90;;;;;;4932276;29;20095;-78
2023/03/30 03:50:38;;;;;;;3.78;1.77;;;14.80;99.90;;;;;;4930517;28;20027;-77
2023/03/30 03:53:04;;;;;;;10.32;2.45;;;14.90;99.90;;;;;;4921111;29;20040;-78
2023/03/30 03:55:33;;;;;;;4.85;2.33;;;14.90;99.90;;;;;;4931429;29;20024;-77
2023/03/30 03:57:59;;;;;;;5.60;2.03;;;14.90;99.90;;;;;;4926976;29;20046;-75
2023/03/30 04:00:25;;;;;;;4.95;1.98;;;14.80;99.90;;;;;;4927679;29;20031;-77
2023/03/30 04:02:51;;;;;;;4.97;1.80;;;14.80;99.90;;;;;;4927658;29;20032;-78
2023/03/30 04:05:16;;;;;;;7.75;2.10;;;14.80;99.90;;;;;;4927741;29;20532;-78
2023/03/30 04:07:45;;;;;;;2.55;1.70;;;14.80;99.90;;;;;;4917257;29;20315;-76
2023/03/30 04:10:11;;;;;;;4.97;1.20;;;14.70;99.90;;;;;;4927569;29;20463;-77
2023/03/30 04:12:37;;;;;;;4.93;1.65;;;14.70;99.90;;;;;;4922259;29;20468;-76
2023/03/30 04:15:05;;;;;;;4.70;2.03;;;14.70;99.90;;;;;;4929582;29;20062;-76
2023/03/30 04:17:32;;;;;;;4.60;1.90;;;14.70;99.90;;;;;;4932059;29;20366;-76
2023/03/30 04:20:04;;;;;;;2.00;1.48;;;14.70;99.90;;;;;;4927195;29;20032;-77
2023/03/30 04:22:40;;;;;;;3.08;1.30;;;14.70;99.90;;;;;;4924693;29;20044;-77
2023/03/30 04:25:08;;;;;;;1.90;1.63;;;14.70;99.90;;;;;;4926811;29;20024;-77
2023/03/30 04:27:36;;;;;;;6.55;1.65;;;14.70;99.90;;;;;;4928558;29;20156;-78
2023/03/30 04:30:04;;;;;;;5.57;1.52;;;14.70;99.90;;;;;;4926803;29;20067;-77
2023/03/30 04:32:33;;;;;;;8.70;1.80;;;14.70;99.90;;;;;;4930323;29;20036;-78
2023/03/30 04:35:00;;;;;;;5.95;1.67;;;14.70;99.90;;;;;;4925853;29;20040;-78
2023/03/30 04:37:34;;;;;;;3.22;1.50;;;14.70;99.90;;;;;;4924159;29;20437;-76
2023/03/30 04:40:04;;;;;;;3.92;1.60;;;14.70;99.90;;;;;;4928929;29;20071;-77
2023/03/30 04:42:32;;;;;;;4.57;1.77;;;14.60;99.90;;;;;;4922408;29;20066;-76
2023/03/30 04:44:59;;;;;;;5.07;1.85;;;14.60;99.90;;;;;;4928343;29;20437;-77
2023/03/30 04:47:26;;;;;;;7.57;1.85;;;14.60;99.90;;;;;;4924339;29;20020;-77
2023/03/30 04:49:52;;;;;;;4.05;1.67;;;14.70;99.90;;;;;;4926549;29;20037;-77
2023/03/30 04:52:18;;;;;;;4.38;1.63;;;14.60;99.90;;;;;;4930755;29;20453;-78
2023/03/30 04:54:45;;;;;;;4.68;2.13;;;14.60;99.90;;;;;;4927908;29;20035;-77
2023/03/30 04:57:12;;;;;;;2.42;1.48;;;14.60;99.90;;;;;;4925445;29;20083;-78
2023/03/30 04:59:39;;;;;;;4.82;1.58;;;14.70;99.90;;;;;;4926679;29;20473;-77
2023/03/30 05:02:06;;;;;;;4.30;1.73;;;14.70;99.90;;;;;;4946559;28;20042;-78
2023/03/30 05:04:31;;;;;;;2.50;1.38;;;14.60;99.90;;;;;;4927085;29;20131;-78
2023/03/30 05:06:57;;;;;;;4.43;1.50;;;14.50;99.90;;;;;;4923123;29;20118;-77
2023/03/30 05:09:23;;;;;;;4.60;1.80;;;14.50;99.90;;;;;;4930614;29;20046;-77
2023/03/30 05:11:49;;;;;;;6.15;2.10;;;14.60;99.90;;;;;;4930787;29;20036;-77
2023/03/30 05:14:15;;;;;;;5.05;1.75;;;14.60;99.90;;;;;;4924585;29;20075;-78
2023/03/30 05:16:41;;;;;;;5.03;2.30;;;14.60;99.90;;;;;;4927897;29;20102;-78
2023/03/30 05:19:07;;;;;;;5.40;2.58;;;14.70;99.90;;;;;;4928389;29;20480;-78
2023/03/30 05:21:33;;;;;;;7.57;2.40;;;14.60;99.90;;;;;;4928965;29;20087;-77
2023/03/30 05:23:59;;;;;;;4.65;2.30;;;14.70;99.90;;;;;;4924364;29;20027;-77
2023/03/30 05:26:25;;;;;;;3.08;1.50;;;14.70;99.90;;;;;;4927974;29;20028;-78
2023/03/30 05:28:51;;;;;;;3.35;1.80;;;14.60;99.90;;;;;;4922504;29;20031;-76
2023/03/30 05:31:17;;;;;;;6.78;2.10;;;14.60;99.90;;;;;;4925798;29;20038;-78
2023/03/30 05:33:43;;;;;;;5.07;1.92;;;14.60;99.90;;;;;;4926027;28;20040;-75
2023/03/30 05:36:09;;;;;;;4.15;1.67;;;14.60;99.90;;;;;;4924459;29;20059;-77
2023/03/30 05:38:35;;;;;;;4.95;2.20;;;14.70;99.90;;;;;;4927450;29;20024;-76
2023/03/30 05:41:01;;;;;;;5.78;2.33;;;14.70;99.90;;;;;;4942994;28;20536;-77
2023/03/30 05:43:27;;;;;;;7.07;2.10;;;14.70;99.90;;;;;;4934937;29;20554;-78
2023/03/30 05:45:52;;;;;;;7.30;1.88;;;14.70;99.90;;;;;;4928725;29;20579;-78
2023/03/30 05:48:18;;;;;;;2.63;1.48;;;14.80;99.90;;;;;;4924569;29;20032;-77
2023/03/30 05:50:46;;;;;;;4.07;1.33;;;14.80;99.90;;;;;;4923353;29;20036;-77
2023/03/30 05:53:12;;;;;;;5.95;1.13;;;14.90;99.90;;;;;;4927706;29;20028;-77
2023/03/30 05:55:37;;;;;;;5.82;1.85;;;14.90;99.90;;;;;;4929211;29;20149;-77
2023/03/30 05:58:03;;;;;;;4.57;1.90;;;14.80;99.90;;;;;;4930942;29;20490;-77
2023/03/30 06:00:32;;;;;;;8.45;1.67;;;14.80;99.90;;;;;;4930145;29;20034;-77
2023/03/30 06:02:58;;;;;;;4.80;1.70;;;14.80;99.90;;;;;;4935977;29;20389;-78
2023/03/30 06:05:24;;;;;;;6.70;1.80;;;14.80;99.90;;;;;;4923277;29;20030;-82
2023/03/30 06:07:51;;;;;;;5.50;1.98;;;14.60;99.90;;;;;;4931032;29;20028;-76
2023/03/30 06:10:16;;;;;;;4.97;1.80;;;14.60;99.90;;;;;;4928452;29;20071;-76
2023/03/30 06:12:42;;;;;;;5.43;1.98;;;14.50;99.90;;;;;;4935133;29;20099;-77
2023/03/30 06:15:08;;;;;;;10.32;2.22;;;14.40;99.90;;;;;;4926381;29;20030;-77
2023/03/30 06:17:35;;;;;;;4.47;1.70;;;14.40;99.90;;;;;;4935500;29;20170;-76
2023/03/30 06:20:07;;;;;;;10.10;2.25;;;14.40;99.90;;;;;;4927020;29;20028;-76
2023/03/30 06:22:33;;;;;;;5.22;2.35;;;14.40;99.90;;;;;;4932668;29;20032;-76
2023/03/30 06:24:59;;;;;;;5.47;2.10;;;14.40;99.90;;;;;;4925632;29;20016;-73
2023/03/30 06:27:25;;;;;;;9.88;2.50;;;14.40;99.90;;;;;;4928195;29;20024;-74
2023/03/30 06:29:51;;;;;;;6.43;2.67;;;14.40;99.90;;;;;;4926991;29;20023;-74
2023/03/30 06:32:17;;;;;;;7.55;3.30;;;14.50;99.90;;;;;;4927958;29;21018;-78
2023/03/30 06:34:43;;;;;;;8.63;3.65;;;14.50;99.90;;;;;;4929324;29;20036;-76
2023/03/30 06:37:09;;;;;;;11.70;3.60;;;14.60;99.90;;;;;;4930375;29;20127;-75
2023/03/30 06:39:36;;;;;;;13.55;3.45;;;14.60;99.90;;;;;;4932918;29;20071;-75
2023/03/30 06:42:04;;;;;;;10.73;3.42;;;14.60;99.90;;;;;;4926428;29;20040;-75
2023/03/30 06:44:30;;;;;;;8.27;2.80;;;14.60;99.90;;;;;;4930160;29;20489;-76
2023/03/30 06:46:56;;;;;;;10.13;3.17;;;14.70;99.90;;;;;;4929937;29;20035;-75
2023/03/30 06:49:21;;;;;;;8.75;3.53;;;14.50;99.90;;;;;;4929245;29;20521;-74
2023/03/30 06:51:47;;;;;;;7.80;3.03;;;14.50;99.90;;;;;;4932969;29;20032;-74
2023/03/30 06:54:13;;;;;;;5.07;2.45;;;14.40;99.90;;;;;;4929551;29;20064;-74
2023/03/30 06:56:39;;;;;;;10.38;3.15;;;14.30;99.90;;;;;;4934163;29;20015;-74
2023/03/30 06:59:05;;;;;;;9.32;2.92;;;14.30;99.90;;;;;;4928832;29;20097;-75
2023/03/30 07:01:32;;;;;;;9.77;2.55;;;14.30;99.90;;;;;;4930190;29;20031;-75
2023/03/30 07:03:58;;;;;;;12.98;3.10;;;14.40;99.90;;;;;;4924919;29;20032;-75
2023/03/30 07:06:23;;;;;;;8.65;3.10;;;14.40;99.90;;;;;;4931501;29;20036;-76
2023/03/30 07:08:49;;;;;;;10.13;2.58;;;14.30;99.90;;;;;;4925339;29;20040;-75
2023/03/30 07:11:15;;;;;;;9.77;2.63;;;14.20;99.90;;;;;;4930844;29;20020;-75
2023/03/30 07:13:40;;;;;;;10.50;2.30;;;14.30;99.90;;;;;;4925091;29;20392;-75
2023/03/30 07:16:07;;;;;;;7.60;2.35;;;14.30;99.90;;;;;;4928315;29;20536;-75
2023/03/30 07:18:32;;;;;;;14.63;2.63;;;14.30;99.90;;;;;;4929136;28;20466;-75
2023/03/30 07:20:59;;;;;;;6.72;2.17;;;14.40;99.90;;;;;;4926526;29;20020;-75
2023/03/30 07:23:25;;;;;;;9.93;2.30;;;14.40;99.90;;;;;;4930170;29;20531;-74
2023/03/30 07:25:51;;;;;;;9.40;2.30;;;14.60;99.90;;;;;;4924018;29;20106;-75
2023/03/30 07:28:18;;;;;;;9.23;2.33;;;14.60;99.90;;;;;;4926224;29;20024;-75
2023/03/30 07:30:43;;;;;;;6.25;2.17;;;14.60;99.90;;;;;;4934565;29;20042;-75
2023/03/30 07:33:10;;;;;;;99.57;7.55;;;14.60;99.90;;;;;;4928212;29;20384;-79
2023/03/30 07:35:41;;;;;;;12.23;2.55;;;14.70;99.90;;;;;;4931225;29;20481;-75
2023/03/30 07:38:07;;;;;;;10.60;3.17;;;14.70;99.90;;;;;;4931898;29;20032;-74
2023/03/30 07:40:32;;;;;;;11.00;2.50;;;14.80;99.90;;;;;;4926511;28;20034;-74
2023/03/30 07:42:58;;;;;;;8.18;2.75;;;14.80;99.90;;;;;;4924584;29;20492;-77
2023/03/30 07:45:23;;;;;;;13.93;3.03;;;14.80;99.90;;;;;;4926207;29;20055;-75
2023/03/30 07:47:49;;;;;;;11.20;2.55;;;14.80;99.90;;;;;;4926821;29;20481;-73
2023/03/30 07:50:15;;;;;;;12.85;2.95;;;14.80;99.90;;;;;;4927465;29;20023;-73
2023/03/30 07:52:41;;;;;;;12.70;2.63;;;14.90;99.90;;;;;;4924098;29;20040;-73
2023/03/30 07:55:07;;;;;;;13.85;2.47;;;15.00;99.90;;;;;;4927355;29;20027;-75
2023/03/30 07:57:33;;;;;;;14.20;2.88;;;15.10;99.90;;;;;;4922660;29;20929;-75
2023/03/30 07:59:59;;;;;;;7.93;2.28;;;15.30;99.90;;;;;;4929861;29;20027;-74
2023/03/30 08:02:25;;;;;;;13.02;3.15;;;15.30;99.90;;;;;;4928990;29;20036;-74
2023/03/30 08:04:51;;;;;;;13.95;2.67;;;15.40;99.90;;;;;;4929710;29;20035;-74
2023/03/30 08:07:17;;;;;;;15.30;3.03;;;15.50;99.90;;;;;;4921232;29;20024;-74
2023/03/30 08:09:44;;;;;;;13.60;2.42;;;15.60;99.90;;;;;;4926695;29;20162;-75
2023/03/30 08:12:10;;;;;;;14.00;2.47;;;15.60;99.90;;;;;;4928006;29;20024;-75
2023/03/30 08:14:36;;;;;;;11.30;3.03;;;15.80;99.90;;;;;;4927016;29;20024;-75
2023/03/30 08:17:02;;;;;;;16.27;3.47;;;15.80;99.90;;;;;;4927901;29;20024;-74
2023/03/30 08:19:28;;;;;;;13.80;2.63;;;15.90;99.90;;;;;;4924665;29;20211;-75
2023/03/30 08:21:55;;;;;;;10.23;3.47;;;15.90;99.90;;;;;;4931282;29;20070;-75
2023/03/30 08:24:21;;;;;;;11.35;2.72;;;15.90;99.90;;;;;;4919801;29;20020;-74
2023/03/30 08:26:47;;;;;;;10.85;2.58;;;16.00;99.90;;;;;;4945090;28;20413;-74
2023/03/30 08:29:12;;;;;;;9.85;2.80;;;15.80;99.90;;;;;;4926066;29;20015;-75
2023/03/30 08:31:38;;;;;;;11.57;2.83;;;15.80;99.90;;;;;;4924300;29;20477;-75
2023/03/30 08:34:05;;;;;;;18.35;3.08;;;15.60;99.90;;;;;;4928307;29;20024;-75
2023/03/30 08:36:31;;;;;;;14.63;3.45;;;15.80;99.90;;;;;;4921748;29;20111;-76
2023/03/30 08:38:57;;;;;;;11.82;2.90;;;15.90;99.90;;;;;;4918454;29;20134;-76
2023/03/30 08:41:28;;;;;;;14.77;3.00;;;15.90;99.90;;;;;;4920641;29;20043;-75
2023/03/30 08:43:59;;;;;;;13.65;3.33;;;15.90;99.90;;;;;;4931445;29;20039;-77
2023/03/30 08:46:25;;;;;;;20.15;3.13;;;15.80;99.90;;;;;;4923956;29;20382;-74
2023/03/30 08:48:53;;;;;;;13.57;3.15;;;16.00;99.90;;;;;;4925244;29;20091;-75
2023/03/30 08:51:30;;;;;;;16.02;3.42;;;15.90;99.90;;;;;;4931516;29;20059;-75
2023/03/30 08:54:00;;;;;;;15.38;3.08;;;15.90;99.90;;;;;;4925467;29;20032;-75
2023/03/30 08:56:31;;;;;;;12.88;3.72;;;15.90;99.90;;;;;;4925627;29;20177;-75
2023/03/30 08:59:42;;;;;;;18.23;3.60;;;15.90;99.90;;;;;;4930991;29;20032;-74
2023/03/30 09:02:23;;;;;;;12.00;2.95;;;15.90;99.90;;;;;;4931111;29;20099;-75
2023/03/30 09:05:13;;;;;;;17.55;3.05;;;15.80;99.90;;;;;;4924300;29;20024;-75
2023/03/30 09:07:49;;;;;;;14.02;2.97;;;16.00;99.90;;;;;;4928773;29;20106;-75
2023/03/30 09:10:18;;;;;;;14.07;2.95;;;16.00;99.90;;;;;;4924063;29;20031;-75
2023/03/30 09:12:54;;;;;;;14.13;3.45;;;16.10;99.90;;;;;;4925237;29;20035;-76
2023/03/30 09:15:27;;;;;;;13.20;3.05;;;16.20;99.90;;;;;;4923419;29;20028;-75
2023/03/30 09:18:03;;;;;;;18.73;3.38;;;16.40;99.90;;;;;;4933312;29;20082;-75
2023/03/30 09:20:31;;;;;;;15.55;3.25;;;16.40;99.90;;;;;;4923546;29;20020;-76
2023/03/30 09:23:01;;;;;;;21.80;4.32;;;16.30;99.90;;;;;;4935253;29;20042;-75
2023/03/30 09:25:34;;;;;;;15.18;3.58;;;16.30;99.90;;;;;;4927373;29;20102;-75
2023/03/30 09:28:15;;;;;;;13.48;2.88;;;16.30;99.90;;;;;;4931097;29;20094;-75
2023/03/30 09:30:46;;;;;;;13.85;2.92;;;16.20;99.90;;;;;;4932016;29;20524;-74
2023/03/30 09:33:31;;;;;;;16.60;3.25;;;16.20;99.90;;;;;;4932649;29;20099;-75
2023/03/30 09:36:14;;;;;;;16.33;3.88;;;16.30;99.90;;;;;;4927935;29;20075;-75
2023/03/30 09:38:40;;;;;;;14.57;3.67;;;16.50;99.90;;;;;;4931816;29;20031;-75
2023/03/30 09:41:34;;;;;;;13.43;3.22;;;16.50;99.90;;;;;;4929227;29;20052;-76
2023/03/30 09:44:01;;;;;;;20.30;3.75;;;16.60;99.90;;;;;;4931094;29;20012;-75
2023/03/30 09:46:27;;;;;;;18.60;3.35;;;16.50;99.90;;;;;;4931278;29;20043;-75
2023/03/30 09:48:53;;;;;;;22.17;3.67;;;16.50;99.90;;;;;;4932935;29;20024;-76
2023/03/30 09:51:24;;;;;;;15.95;3.55;;;16.50;99.90;;;;;;4928539;29;20041;-75
2023/03/30 09:53:58;;;;;;;15.75;3.28;;;16.70;99.90;;;;;;4926842;29;20095;-73
2023/03/30 09:56:45;;;;;;;19.88;4.32;;;16.70;99.90;;;;;;4928155;29;20031;-74
2023/03/30 09:59:28;;;;;;;13.18;3.65;;;16.60;99.90;;;;;;4935233;29;20047;-74
2023/03/30 10:02:11;;;;;;;;;;;16.70;99.90;;;;;;4935013;29;20047;-73
2023/03/30 10:04:52;;;;;;;16.33;3.70;;;16.90;99.90;;;;;;4930977;29;19914;-74
2023/03/30 10:07:27;;;;;;;16.90;3.65;;;16.70;99.90;;;;;;4934018;29;20465;-74
2023/03/30 10:09:53;;;;;;;15.50;3.40;;;16.60;99.90;;;;;;4926254;29;20096;-75
2023/03/30 10:12:21;;;;;;;20.23;3.97;;;16.60;99.90;;;;;;4926205;29;20028;-74
2023/03/30 10:14:53;;;;;;;20.45;4.22;;;16.70;99.90;;;;;;4930771;29;20454;-83
2023/03/30 10:17:22;;;;;;;15.32;3.67;;;16.90;99.90;;;;;;4936723;29;20110;-74
2023/03/30 10:19:50;;;;;;;16.58;3.97;;;17.00;99.90;;;;;;4932961;29;20031;-74
2023/03/30 10:22:21;;;;;;;13.90;4.25;;;17.00;99.90;;;;;;4930194;29;20059;-74
2023/03/30 10:24:55;;;;;;;17.98;3.65;;;17.30;99.90;;;;;;4933771;29;20103;-74
2023/03/30 10:27:32;;;;;;;19.08;3.63;;;17.30;99.90;;;;;;4943529;28;20400;-80
2023/03/30 10:30:11;;;;;;;13.70;4.15;;;17.40;99.90;;;;;;4933859;29;20016;-75
2023/03/30 10:32:37;;;;;;;20.27;3.55;;;17.50;99.90;;;;;;4931465;28;20067;-75
2023/03/30 10:35:08;;;;;;;19.20;3.60;;;17.40;99.90;;;;;;4933563;29;20063;-75
2023/03/30 10:37:41;;;;;;;20.23;4.57;;;17.30;99.90;;;;;;4938081;29;20116;-75
2023/03/30 10:40:20;;;;;;;15.43;3.50;;;17.30;99.90;;;;;;4935716;29;20031;-74
2023/03/30 10:42:54;;;;;;;17.88;3.10;;;17.40;99.90;;;;;;4928708;29;20046;-74
2023/03/30 10:45:30;;;;;;;20.45;3.67;;;17.50;99.90;;;;;;4922075;29;20357;-74
2023/03/30 10:47:56;;;;;;;21.25;4.43;;;17.70;99.90;;;;;;4911134;29;20461;-74
2023/03/30 10:50:34;;;;;;;12.65;3.42;;;18.00;99.90;;;;;;4922061;29;20040;-74
2023/03/30 10:53:21;;;;;;;16.42;3.28;;;18.30;99.90;;;;;;4925119;29;20023;-81
2023/03/30 10:56:00;;;;;;;13.32;3.25;;;18.20;99.90;;;;;;4922471;29;20099;-73
2023/03/30 10:58:57;;;;;;;11.63;2.72;;;18.10;99.90;;;;;;4919338;29;20536;-73
2023/03/30 11:01:35;;;;;;;13.40;3.55;;;18.30;99.90;;;;;;4920987;29;20048;-74
2023/03/30 11:04:09;;;;;;;14.60;3.85;;;18.40;99.90;;;;;;4923826;29;20467;-73
2023/03/30 11:06:45;;;;;;;19.90;4.03;;;18.50;99.90;;;;;;4919623;29;20461;-74
2023/03/30 11:09:20;;;;;;;12.93;3.33;;;18.50;99.90;;;;;;4921602;29;20091;-73
2023/03/30 11:11:55;;;;;;;25.08;4.00;;;18.60;99.90;;;;;;4926655;29;20027;-73
2023/03/30 11:14:45;;;;;;;22.98;4.72;;;18.40;99.90;;;;;;4921211;29;20463;-74
2023/03/30 11:17:27;;;;;;;21.48;3.88;;;18.30;99.90;;;;;;4923693;29;20036;-74
2023/03/30 11:20:00;;;;;;;18.60;3.05;;;17.90;99.90;;;;;;4921699;29;20619;-75
2023/03/30 11:22:27;;;;;;;12.30;2.83;;;18.00;99.90;;;;;;4924527;28;20075;-73
2023/03/30 11:24:55;;;;;;;11.32;2.63;;;17.90;99.90;;;;;;4923215;29;20028;-75
2023/03/30 11:27:30;;;;;;;16.73;3.65;;;17.70;99.90;;;;;;4923560;29;20078;-77
2023/03/30 11:30:01;;;;;;;32.00;4.03;;;17.60;99.90;;;;;;4919980;29;20028;-74
2023/03/30 11:32:45;;;;;;;12.88;2.92;;;17.50;99.90;;;;;;4924498;29;20024;-75
2023/03/30 11:35:17;;;;;;;14.82;2.60;;;17.50;99.90;;;;;;4922095;29;20032;-75
2023/03/30 11:38:07;;;;;;;18.35;3.95;;;17.40;99.90;;;;;;4921993;29;20028;-74
2023/03/30 11:40:52;;;;;;;24.90;4.15;;;16.90;99.90;;;;;;4917987;29;20438;-71
2023/03/30 11:43:22;;;;;;;5.10;1.70;;;16.30;99.90;;;;;;4919130;29;20032;-74
2023/03/30 11:46:02;;;;;;;6.68;2.05;;;15.90;99.90;;;;;;4918471;29;20026;-71
2023/03/30 11:48:43;;;;;;;5.60;1.05;;;16.00;99.90;;;;;;4919842;29;20039;-74
2023/03/30 11:51:26;;;;;;;7.68;1.27;;;16.20;99.90;;;;;;4918615;29;20034;-75
2023/03/30 11:54:17;;;;;;;6.82;1.38;;;16.20;99.90;;;;;;4917294;29;20099;-75
2023/03/30 11:57:09;;;;;;;6.18;1.27;;;16.50;99.90;;;;;;4923971;29;20806;-76
2023/03/30 12:00:00;;;;;;;4.60;1.65;;;16.60;99.90;;;;;;4917150;29;20108;-74
2023/03/30 12:02:50;;;;;;;8.20;1.92;;;16.70;99.90;;;;;;4923753;29;20201;-78
2023/03/30 12:05:33;;;;;;;22.45;3.28;;;16.70;99.90;;;;;;4938611;28;20504;-75
2023/03/30 12:08:18;;;;;;;7.53;2.08;;;16.70;99.90;;;;;;4921861;29;20059;-76
2023/03/30 12:10:50;;;;;;;8.90;2.42;;;16.90;99.90;;;;;;4920910;29;20079;-77
2023/03/30 12:13:18;;;;;;;14.95;3.08;;;16.80;99.90;;;;;;4919100;29;20063;-76
2023/03/30 12:16:05;;;;;;;14.70;3.60;;;17.10;99.90;;;;;;4924440;29;20560;-76
2023/03/30 12:18:49;;;;;;;9.98;2.90;;;17.20;99.90;;;;;;4926168;29;20058;-78
2023/03/30 12:21:52;;;;;;;12.40;3.05;;;17.00;99.90;;;;;;4921385;29;20044;-75
2023/03/30 12:24:29;;;;;;;15.32;3.03;;;16.90;99.90;;;;;;4925794;28;20036;-75
2023/03/30 12:26:55;;;;;;;14.95;2.63;;;16.80;99.90;;;;;;4923849;29;20031;-75
2023/03/30 12:29:21;;;;;;;13.85;2.55;;;16.80;99.90;;;;;;4919086;29;20040;-75
2023/03/30 12:31:57;;;;;;;13.80;3.17;;;16.70;99.90;;;;;;4921780;29;20043;-74
2023/03/30 12:34:27;;;;;;;15.50;3.60;;;16.50;99.90;;;;;;4923708;29;20074;-75
2023/03/30 12:36:55;;;;;;;14.45;3.25;;;16.40;99.90;;;;;;4918096;29;20026;-75
2023/03/30 12:39:52;;;;;;;17.08;3.20;;;16.60;99.90;;;;;;4921887;29;20051;-75
2023/03/30 12:42:25;;;;;;;12.45;2.55;;;16.60;99.90;;;;;;4915951;29;20078;-75
2023/03/30 12:45:30;;;;;;;17.45;3.70;;;16.60;99.90;;;;;;4922412;29;20119;-75
2023/03/30 12:48:00;;;;;;;10.57;3.20;;;16.70;99.90;;;;;;4923359;29;20062;-76
2023/03/30 12:50:55;;;;;;;15.35;3.00;;;16.90;99.90;;;;;;4920744;29;20044;-77
2023/03/30 12:53:42;;;;;;;11.10;2.83;;;16.90;99.90;;;;;;4925206;29;20023;-76
2023/03/30 12:56:27;;;;;;;16.05;3.35;;;17.00;99.90;;;;;;4924617;29;20778;-75
2023/03/30 12:59:18;;;;;;;14.38;3.45;;;17.10;99.90;;;;;;4925739;29;20405;-76
2023/03/30 13:02:05;;;;;;;15.35;2.83;;;17.10;99.90;;;;;;4922449;28;20111;-76
2023/03/30 13:04:38;;;;;;;15.27;3.55;;;17.10;99.90;;;;;;4927312;29;20032;-75
2023/03/30 13:07:23;;;;;;;10.88;2.83;;;17.20;99.90;;;;;;4924509;29;20449;-75